»·PEaware :: N327J KGEG-KBOI

N327J :: KGEG-KBOI

FLIGHT INFORMATION

Flight Status: Arrived
Operator: Privately registered:
United States
More flights under this callsign
Pilot: Blake J. (22694)
Aircraft: SOCATA TBM-900
(TBM9)
More flights by this aircraft type
Origin: KGEG Spokane Intl
United States
Destination: KBOI Boise Air Terminal/Gowen
United States
More flights between these airports :: More routes between these airports
Route: +GEG6 PUW SUMOQ BEWTE3
File this flight plan on PilotEdge
Remarks: RMK / SIMBRIEF
Altitude:
(Current/Filed)
29,000ft
Speed:
(Current/Filed)
315kts
Departed: 06-Apr-20 08:34 PM
Arrived: 06-Apr-20 09:27 PM
Distance/Time
Traveled:
249nm/0:52
Distance/Time
To Go:
Arrived

Flight Plot

Page will automatically refresh every two minutes.


Map Options




Map Legend


Flown Route
Filed Route
Departure Airport
Arrival Airport
Navaid (VOR, NDB)
Fix

Horizontal Profiles

Position Reports

Time Latitude Longitude Heading Altitude Ground
Speed
06-Apr-20 20:21 47.621024 -117.523418 95 2363ft 1kts
06-Apr-20 20:22 47.620768 -117.523444 280 2364ft 0kts
06-Apr-20 20:23 47.620768 -117.523444 280 2364ft 0kts
06-Apr-20 20:24 47.620768 -117.523444 280 2364ft 0kts
06-Apr-20 20:25 47.620768 -117.523444 280 2364ft 0kts
06-Apr-20 20:26 47.620768 -117.523444 280 2364ft 0kts
06-Apr-20 20:27 47.620790 -117.523559 291 2363ft 3kts
06-Apr-20 20:28 47.622163 -117.525016 354 2357ft 0kts
06-Apr-20 20:29 47.622937 -117.525118 354 2354ft 13kts
06-Apr-20 20:30 47.625453 -117.523466 45 2346ft 11kts
06-Apr-20 20:31 47.628222 -117.519286 47 2331ft 12kts
06-Apr-20 20:32 47.630687 -117.517726 318 2320ft 13kts
06-Apr-20 20:33 47.621814 -117.532769 227 2832ft 110kts
06-Apr-20 20:34 47.597009 -117.568038 224 5399ft 126kts
06-Apr-20 20:35 47.569187 -117.594867 171 7989ft 138kts
06-Apr-20 20:36 47.531994 -117.576672 170 10359ft 152kts
06-Apr-20 20:37 47.489097 -117.558221 170 12684ft 172kts
06-Apr-20 20:38 47.446495 -117.540310 171 15104ft 174kts
06-Apr-20 20:39 47.398770 -117.520459 171 17414ft 186kts
06-Apr-20 20:40 47.347880 -117.499405 169 19801ft 196kts
06-Apr-20 20:41 47.293691 -117.476969 167 22152ft 209kts
06-Apr-20 20:42 47.231515 -117.451237 165 23740ft 252kts
06-Apr-20 20:43 47.162892 -117.422919 164 25653ft 264kts
06-Apr-20 20:44 47.090091 -117.392967 163 27521ft 280kts
06-Apr-20 20:45 47.012768 -117.361233 162 28947ft 305kts
06-Apr-20 20:46 46.923132 -117.324547 162 28950ft 356kts
06-Apr-20 20:47 46.828610 -117.286077 162 28930ft 372kts
06-Apr-20 20:48 46.728212 -117.245346 162 28956ft 376kts
06-Apr-20 20:49 46.626818 -117.207843 165 28962ft 377kts
06-Apr-20 20:50 46.524385 -117.174255 165 28960ft 378kts
06-Apr-20 20:51 46.421633 -117.140645 164 28964ft 378kts
06-Apr-20 20:52 46.319222 -117.107279 164 28966ft 378kts
06-Apr-20 20:53 46.216266 -117.073852 164 28969ft 378kts
06-Apr-20 20:54 46.113825 -117.040744 164 28977ft 378kts
06-Apr-20 20:55 46.011041 -117.007639 164 28984ft 378kts
06-Apr-20 20:56 45.908331 -116.974692 163 28987ft 377kts
06-Apr-20 20:57 45.807945 -116.942588 163 28974ft 374kts
06-Apr-20 20:58 45.706484 -116.910285 163 28985ft 373kts
06-Apr-20 20:59 45.604702 -116.877986 163 28981ft 374kts
06-Apr-20 21:00 45.503084 -116.845868 163 28973ft 374kts
06-Apr-20 21:01 45.401688 -116.813928 163 28956ft 373kts
06-Apr-20 21:02 45.300451 -116.782162 163 28962ft 372kts
06-Apr-20 21:03 45.199162 -116.750506 163 28966ft 371kts
06-Apr-20 21:04 45.098171 -116.719041 162 28962ft 372kts
06-Apr-20 21:05 44.993821 -116.686560 164 27599ft 395kts
06-Apr-20 21:06 44.890050 -116.656504 168 25727ft 389kts
06-Apr-20 21:07 44.787176 -116.629886 169 23999ft 364kts
06-Apr-20 21:08 44.689609 -116.604750 169 22285ft 352kts
06-Apr-20 21:09 44.594902 -116.580404 170 20586ft 339kts
06-Apr-20 21:10 44.503978 -116.557116 170 19074ft 327kts
06-Apr-20 21:11 44.415373 -116.534501 171 17590ft 321kts
06-Apr-20 21:12 44.328582 -116.512426 170 16253ft 315kts
06-Apr-20 21:13 44.243695 -116.490877 171 14918ft 308kts
06-Apr-20 21:14 44.159417 -116.469551 171 13413ft 307kts
06-Apr-20 21:15 44.076260 -116.448573 170 12015ft 301kts
06-Apr-20 21:16 43.994361 -116.427807 169 10613ft 295kts
06-Apr-20 21:17 43.914483 -116.406677 168 9214ft 292kts
06-Apr-20 21:18 43.835711 -116.405702 187 7805ft 290kts
06-Apr-20 21:19 43.762043 -116.420344 187 6275ft 225kts
06-Apr-20 21:20 43.706558 -116.431339 187 4976ft 174kts
06-Apr-20 21:21 43.669216 -116.410913 142 4141ft 147kts
06-Apr-20 21:22 43.633241 -116.372999 142 4105ft 170kts
06-Apr-20 21:23 43.601438 -116.329092 114 4102ft 166kts
06-Apr-20 21:24 43.585146 -116.280822 117 3574ft 98kts
06-Apr-20 21:25 43.574558 -116.249727 116 3099ft 92kts
06-Apr-20 21:26 43.566312 -116.225523 116 2846ft 23kts
06-Apr-20 21:27 43.564760 -116.224149 179 2846ft 0kts
06-Apr-20 21:28 43.562967 -116.225873 293 2846ft 10kts
06-Apr-20 21:29 43.564438 -116.230167 296 2846ft 14kts
06-Apr-20 21:30 43.564054 -116.232789 302 2845ft 9kts
06-Apr-20 21:31 43.564177 -116.232869 351 2845ft 0kts
06-Apr-20 21:32 43.564177 -116.232869 351 2845ft 0kts
06-Apr-20 21:33 43.564177 -116.232869 351 2845ft 0kts

Navigation Log

Ident Type
Flight plan parsing failed, navigation log unavailable